createdAt,value
2023-01-10T00:02:22.739Z,27.90
2023-01-10T00:07:25.474Z,27.80
2023-01-10T00:09:57.744Z,27.60
2023-01-10T00:12:47.006Z,27.30
2023-01-10T00:15:21.027Z,27.70
2023-01-10T00:17:53.195Z,30.40
2023-01-10T00:20:26.473Z,28.60
2023-01-10T00:23:01.492Z,26.60
2023-01-10T00:25:36.437Z,27.70
2023-01-10T00:28:15.793Z,26.20
2023-01-10T00:30:55.373Z,30.40
2023-01-10T00:33:27.577Z,28.30
2023-01-10T00:35:59.817Z,28.80
2023-01-10T00:38:33.213Z,29.80
2023-01-10T00:41:26.638Z,27.60
2023-01-10T00:43:58.876Z,31.20
2023-01-10T00:46:31.267Z,31.20
2023-01-10T00:49:08.683Z,31.00
2023-01-10T00:51:40.898Z,31.70
2023-01-10T00:54:14.701Z,30.90
2023-01-10T00:59:17.601Z,29.80
2023-01-10T01:01:49.999Z,31.00
2023-01-10T01:04:23.705Z,29.60
2023-01-10T01:06:55.843Z,31.90
2023-01-10T01:09:27.970Z,28.40
2023-01-10T01:12:00.057Z,30.90
2023-01-10T01:14:32.216Z,32.20
2023-01-10T01:17:04.256Z,31.20
2023-01-10T01:19:36.559Z,27.30
2023-01-10T01:22:08.697Z,28.30
2023-01-10T01:24:40.989Z,27.90
2023-01-10T01:27:13.265Z,29.10
2023-01-10T01:29:45.277Z,30.90
2023-01-10T01:32:17.838Z,27.20
2023-01-10T01:34:50.079Z,26.80
2023-01-10T01:37:22.124Z,27.10
2023-01-10T01:40:11.511Z,24.60
2023-01-10T01:43:04.926Z,26.40
2023-01-10T01:45:41.252Z,26.40
2023-01-10T01:48:29.411Z,24.60
2023-01-10T01:51:07.934Z,26.50
2023-01-10T01:53:45.913Z,28.20
2023-01-10T01:56:22.166Z,25.30
2023-01-10T01:58:57.670Z,29.60
2023-01-10T02:01:48.324Z,25.10
2023-01-10T02:04:23.826Z,26.20
2023-01-10T02:06:58.675Z,28.50
2023-01-10T02:09:36.716Z,28.60
2023-01-10T02:12:09.536Z,26.50
2023-01-10T02:14:43.710Z,28.70
2023-01-10T02:17:17.036Z,24.20
2023-01-10T02:19:55.746Z,32.80
2023-01-10T02:23:06.979Z,25.40
2023-01-10T02:26:02.677Z,23.90
2023-01-10T02:29:13.198Z,29.70
2023-01-10T02:32:08.302Z,25.80
2023-01-10T02:34:50.960Z,27.50
2023-01-10T02:37:32.042Z,29.70
2023-01-10T02:40:11.729Z,27.20
2023-01-10T02:42:51.565Z,24.20
2023-01-10T02:45:31.217Z,29.80
2023-01-10T02:48:03.517Z,28.40
2023-01-10T02:50:53.770Z,26.30
2023-01-10T02:53:30.451Z,27.90
2023-01-10T02:56:30.636Z,29.30
2023-01-10T02:59:18.300Z,29.30
2023-01-10T03:02:01.152Z,28.00
2023-01-10T03:04:41.644Z,28.60
2023-01-10T03:07:23.575Z,28.10
2023-01-10T03:10:03.337Z,31.80
2023-01-10T03:12:42.021Z,30.20
2023-01-10T03:15:17.460Z,32.30
2023-01-10T03:17:55.909Z,27.30
2023-01-10T03:20:51.074Z,32.00
2023-01-10T03:23:26.795Z,29.00
2023-01-10T03:25:59.351Z,32.50
2023-01-10T03:28:36.757Z,31.10
2023-01-10T03:31:13.295Z,31.30
2023-01-10T03:33:47.138Z,31.70
2023-01-10T03:36:31.436Z,31.30
2023-01-10T03:39:11.920Z,32.80
2023-01-10T03:41:50.439Z,34.60
2023-01-10T03:44:45.930Z,29.50
2023-01-10T03:47:28.259Z,31.70
2023-01-10T03:50:06.002Z,33.90
2023-01-10T03:52:41.558Z,30.80
2023-01-10T03:55:17.290Z,33.00
2023-01-10T03:57:50.464Z,31.60
2023-01-10T04:00:24.794Z,31.50
2023-01-10T04:02:58.529Z,33.20
2023-01-10T04:08:03.011Z,28.70
2023-01-10T04:10:35.427Z,30.30
2023-01-10T04:13:08.080Z,30.50
2023-01-10T04:15:41.414Z,29.90
2023-01-10T04:18:16.047Z,29.50
2023-01-10T04:20:49.646Z,28.60
2023-01-10T04:23:22.718Z,28.80
2023-01-10T04:25:54.898Z,25.50
2023-01-10T04:28:27.250Z,26.00
2023-01-10T04:30:59.656Z,25.00
2023-01-10T04:33:32.640Z,24.40
2023-01-10T04:36:04.798Z,24.70
2023-01-10T04:38:36.821Z,23.80
2023-01-10T04:41:09.488Z,22.30
2023-01-10T04:43:41.653Z,20.30
2023-01-10T04:46:14.234Z,23.10
2023-01-10T04:48:46.453Z,22.10
2023-01-10T04:51:18.895Z,23.00
2023-01-10T04:53:50.967Z,20.90
2023-01-10T04:56:24.990Z,20.70
2023-01-10T04:58:57.810Z,19.20
2023-01-10T05:01:30.124Z,19.40
2023-01-10T05:04:03.759Z,21.90
2023-01-10T05:06:37.357Z,19.90
2023-01-10T05:11:40.148Z,19.30
2023-01-10T05:14:13.795Z,26.20
2023-01-10T05:16:46.397Z,17.60
2023-01-10T05:19:18.597Z,20.20
2023-01-10T05:21:52.378Z,19.80
2023-01-10T05:24:24.597Z,18.80
2023-01-10T05:26:58.629Z,22.30
2023-01-10T05:29:31.127Z,16.90
2023-01-10T05:32:03.496Z,24.00
2023-01-10T05:34:36.004Z,19.60
2023-01-10T05:37:08.206Z,17.70
2023-01-10T05:39:41.881Z,20.10
2023-01-10T05:44:44.351Z,17.10
2023-01-10T05:47:16.644Z,19.60
2023-01-10T05:49:48.759Z,16.40
2023-01-10T05:52:20.890Z,17.80
2023-01-10T05:54:53.553Z,19.30
2023-01-10T05:57:26.057Z,17.90
2023-01-10T05:59:58.457Z,17.30
2023-01-10T06:02:31.348Z,15.70
2023-01-10T06:05:03.750Z,15.70
2023-01-10T06:07:36.460Z,17.80
2023-01-10T06:10:09.978Z,17.50
2023-01-10T06:12:43.928Z,17.30
2023-01-10T06:15:17.460Z,14.20
2023-01-10T06:17:49.660Z,13.70
2023-01-10T06:20:22.353Z,11.70
2023-01-10T06:22:56.138Z,12.20
2023-01-10T06:25:29.630Z,12.00
2023-01-10T06:28:01.769Z,11.70
2023-01-10T06:30:35.656Z,11.60
2023-01-10T06:33:09.819Z,11.70
2023-01-10T06:35:42.037Z,10.10
2023-01-10T06:38:14.076Z,9.40
2023-01-10T06:40:46.588Z,9.50
2023-01-10T06:43:18.693Z,7.50
2023-01-10T06:45:51.706Z,9.30
2023-01-10T06:48:23.723Z,6.80
2023-01-10T06:50:55.995Z,8.50
2023-01-10T06:53:28.100Z,8.10
2023-01-10T06:56:00.313Z,6.30
2023-01-10T06:58:35.048Z,6.30
2023-01-10T07:01:07.824Z,5.60
2023-01-10T07:03:41.036Z,5.50
2023-01-10T07:06:13.925Z,6.60
2023-01-10T07:08:48.811Z,7.50
2023-01-10T07:11:21.126Z,6.20
2023-01-10T07:13:53.736Z,6.40
2023-01-10T07:16:26.689Z,5.80
2023-01-10T07:18:59.357Z,7.20
2023-01-10T07:21:31.664Z,7.10
2023-01-10T07:24:03.929Z,6.20
2023-01-10T07:26:36.384Z,6.90
2023-01-10T07:29:09.030Z,11.60
2023-01-10T07:31:42.922Z,9.80
2023-01-10T07:34:15.167Z,9.90
2023-01-10T07:36:47.430Z,13.70
2023-01-10T07:39:19.568Z,55.00
2023-01-10T07:41:53.107Z,39.20
2023-01-10T07:44:26.916Z,51.10
2023-01-10T07:46:59.781Z,23.10
2023-01-10T07:49:31.893Z,20.70
2023-01-10T07:52:03.956Z,21.30
2023-01-10T07:54:36.259Z,15.40
2023-01-10T07:57:08.368Z,18.20
2023-01-10T07:59:40.931Z,18.20
2023-01-10T08:02:14.112Z,18.20
2023-01-10T08:04:46.537Z,15.90
2023-01-10T08:07:19.524Z,19.40
2023-01-10T08:09:51.880Z,17.70
2023-01-10T08:12:25.414Z,19.30
2023-01-10T08:14:57.891Z,21.20
2023-01-10T08:17:29.925Z,23.30
2023-01-10T08:20:01.880Z,24.00
2023-01-10T08:22:34.240Z,27.10
2023-01-10T08:25:06.720Z,28.50
2023-01-10T08:27:39.220Z,28.70
2023-01-10T08:30:13.777Z,30.60
2023-01-10T08:32:46.028Z,28.70
2023-01-10T08:35:18.758Z,31.30
2023-01-10T08:37:51.258Z,28.70
2023-01-10T08:40:23.626Z,29.60
2023-01-10T08:43:01.750Z,27.90
2023-01-10T08:45:34.560Z,30.80
2023-01-10T08:48:09.668Z,28.30
2023-01-10T08:50:41.748Z,26.60
2023-01-10T08:53:15.079Z,31.10
2023-01-10T08:55:47.296Z,28.70
2023-01-10T08:58:19.568Z,28.20
2023-01-10T09:00:52.492Z,29.40
2023-01-10T09:03:24.794Z,27.10
2023-01-10T09:05:57.323Z,26.70
2023-01-10T09:08:29.900Z,27.50
2023-01-10T09:11:03.398Z,23.90
2023-01-10T09:16:07.078Z,27.10
2023-01-10T09:18:39.478Z,26.60
2023-01-10T09:21:11.809Z,26.80
2023-01-10T09:23:44.720Z,24.50
2023-01-10T09:26:16.854Z,27.00
2023-01-10T09:28:49.610Z,29.80
2023-01-10T09:31:22.144Z,27.40
2023-01-10T09:33:54.329Z,24.50
2023-01-10T09:36:26.838Z,26.70
2023-01-10T09:38:59.143Z,24.00
2023-01-10T09:41:52.999Z,26.70
2023-01-10T09:44:39.283Z,21.10
2023-01-10T09:47:23.025Z,26.70
2023-01-10T09:50:08.549Z,22.40
2023-01-10T09:52:45.477Z,23.60
2023-01-10T09:55:27.232Z,34.90
2023-01-10T09:58:02.819Z,25.40
2023-01-10T10:00:43.458Z,21.50
2023-01-10T10:03:24.509Z,27.80
2023-01-10T10:06:11.352Z,27.50
2023-01-10T10:08:45.733Z,22.30
2023-01-10T10:11:45.605Z,22.20
2023-01-10T10:14:27.356Z,23.60
2023-01-10T10:17:16.735Z,25.00
2023-01-10T10:20:01.541Z,20.70
2023-01-10T10:22:46.012Z,23.80
2023-01-10T10:25:31.795Z,19.40
2023-01-10T10:28:34.454Z,20.70
2023-01-10T10:31:16.232Z,18.60
2023-01-10T10:34:02.101Z,20.90
2023-01-10T10:36:42.689Z,16.90
2023-01-10T10:39:19.704Z,15.60
2023-01-10T10:41:59.327Z,14.00
2023-01-10T10:44:42.096Z,19.00
2023-01-10T10:47:18.763Z,19.60
2023-01-10T10:49:56.595Z,18.00
2023-01-10T10:52:32.591Z,16.80
2023-01-10T10:55:07.465Z,18.10
2023-01-10T10:57:55.362Z,18.00
2023-01-10T11:00:34.166Z,23.20
2023-01-10T11:03:14.430Z,23.40
2023-01-10T11:05:48.702Z,28.00
2023-01-10T11:08:23.884Z,29.90
2023-01-10T11:10:58.823Z,24.30
2023-01-10T11:13:44.980Z,30.80
2023-01-10T11:16:32.747Z,31.00
2023-01-10T11:19:23.205Z,30.00
2023-01-10T11:21:58.025Z,33.70
2023-01-10T11:24:37.146Z,39.20
2023-01-10T11:27:20.373Z,44.40
2023-01-10T11:29:54.122Z,47.00
2023-01-10T11:32:31.091Z,58.70
2023-01-10T11:35:06.720Z,39.60
2023-01-10T11:37:39.608Z,60.10
2023-01-10T11:40:29.704Z,42.80
2023-01-10T11:43:22.524Z,32.10
2023-01-10T11:45:58.764Z,60.00
2023-01-10T11:49:05.138Z,50.70
2023-01-10T11:51:39.722Z,34.60
2023-01-10T11:54:19.000Z,34.10
2023-01-10T11:56:59.451Z,33.20
2023-01-10T11:59:33.192Z,48.70
2023-01-10T12:02:14.029Z,36.90
2023-01-10T12:04:49.443Z,57.30
2023-01-10T12:07:21.750Z,32.60
2023-01-10T12:10:03.331Z,35.80
2023-01-10T12:12:36.832Z,43.60
2023-01-10T12:15:25.691Z,69.90
2023-01-10T12:18:00.791Z,34.00
2023-01-10T12:20:36.719Z,29.20
2023-01-10T12:23:30.263Z,36.30
2023-01-10T12:26:11.856Z,34.10
2023-01-10T12:28:50.557Z,31.30
2023-01-10T12:31:25.167Z,42.40
2023-01-10T12:34:03.111Z,35.70
2023-01-10T12:36:45.055Z,37.20
2023-01-10T12:39:23.908Z,49.50
2023-01-10T12:42:29.441Z,35.00
2023-01-10T12:45:08.984Z,16.40
2023-01-10T12:47:55.951Z,17.70
2023-01-10T12:50:33.765Z,33.50
2023-01-10T12:53:08.712Z,23.70
2023-01-10T12:55:43.160Z,28.00
2023-01-10T12:58:22.879Z,25.40
2023-01-10T13:00:59.690Z,22.80
2023-01-10T13:03:35.695Z,20.60
2023-01-10T13:06:08.287Z,17.20
2023-01-10T13:08:43.888Z,15.80
2023-01-10T13:11:22.108Z,31.90
2023-01-10T13:14:02.555Z,28.20
2023-01-10T13:16:44.511Z,17.90
2023-01-10T13:19:29.430Z,14.80
2023-01-10T13:22:23.488Z,16.40
2023-01-10T13:25:03.990Z,18.50
2023-01-10T13:27:37.334Z,31.80
2023-01-10T13:30:30.728Z,21.20
2023-01-10T13:33:06.798Z,18.30
2023-01-10T13:35:44.395Z,17.10
2023-01-10T13:38:26.902Z,16.80
2023-01-10T13:41:05.539Z,16.20
2023-01-10T13:44:07.845Z,52.40
2023-01-10T13:46:49.081Z,17.10
2023-01-10T13:49:46.147Z,15.70
2023-01-10T13:52:35.386Z,17.20
2023-01-10T13:55:29.226Z,18.10
2023-01-10T13:58:02.871Z,16.20
2023-01-10T14:03:58.122Z,19.90
2023-01-10T14:06:43.510Z,19.10
2023-01-10T14:09:37.245Z,19.10
2023-01-10T14:12:19.299Z,19.70
2023-01-10T14:14:59.226Z,20.20
2023-01-10T14:17:33.316Z,20.00
2023-01-10T14:20:16.100Z,19.60
2023-01-10T14:23:02.919Z,25.80
2023-01-10T14:25:37.591Z,21.60
2023-01-10T14:28:22.946Z,18.50
2023-01-10T14:31:05.683Z,21.30
2023-01-10T14:33:44.175Z,20.80
2023-01-10T14:36:22.206Z,19.80
2023-01-10T14:38:57.887Z,17.60
2023-01-10T14:41:37.608Z,20.50
2023-01-10T14:44:25.180Z,21.10
2023-01-10T14:47:03.541Z,22.20
2023-01-10T14:49:51.939Z,19.80
2023-01-10T14:52:27.098Z,20.40
2023-01-10T14:55:08.089Z,19.30
2023-01-10T14:57:42.060Z,31.00
2023-01-10T15:00:19.058Z,24.70
2023-01-10T15:02:52.338Z,31.60
2023-01-10T15:05:29.019Z,22.40
2023-01-10T15:08:18.939Z,21.60
2023-01-10T15:10:53.589Z,20.50
2023-01-10T15:13:32.891Z,22.90
2023-01-10T15:16:08.188Z,21.00
2023-01-10T15:18:45.224Z,23.80
2023-01-10T15:21:22.362Z,19.50
2023-01-10T15:23:54.594Z,19.10
2023-01-10T15:26:33.705Z,20.50
2023-01-10T15:29:19.718Z,20.30
2023-01-10T15:31:56.334Z,19.10
2023-01-10T15:34:33.291Z,20.00
2023-01-10T15:37:08.515Z,19.10
2023-01-10T15:39:43.448Z,17.80
2023-01-10T15:42:16.706Z,17.20
2023-01-10T15:44:52.890Z,20.80
2023-01-10T15:47:44.823Z,20.10
2023-01-10T15:50:27.347Z,17.00
2023-01-10T15:53:02.467Z,20.40
2023-01-10T15:55:46.549Z,25.30
2023-01-10T15:58:29.668Z,19.40
2023-01-10T16:01:04.830Z,19.40
2023-01-10T16:03:40.084Z,20.30
2023-01-10T16:06:24.482Z,23.40
2023-01-10T16:08:59.604Z,23.70
2023-01-10T16:11:57.793Z,24.60
2023-01-10T16:14:29.777Z,23.90
2023-01-10T16:17:03.834Z,25.00
2023-01-10T16:19:37.038Z,24.40
2023-01-10T16:22:09.747Z,24.80
2023-01-10T16:24:45.507Z,26.60
2023-01-10T16:27:17.639Z,22.30
2023-01-10T16:29:49.719Z,26.90
2023-01-10T16:32:22.147Z,24.20
2023-01-10T16:34:54.420Z,26.50
2023-01-10T16:37:26.704Z,34.40
2023-01-10T16:39:59.479Z,32.50
2023-01-10T16:42:49.949Z,34.90
2023-01-10T16:45:22.292Z,45.30
2023-01-10T16:47:54.581Z,36.70
2023-01-10T16:50:26.960Z,45.40
2023-01-10T16:52:59.924Z,35.90
2023-01-10T16:55:39.077Z,29.50
2023-01-10T16:58:12.555Z,34.40
2023-01-10T17:00:47.240Z,34.30
2023-01-10T17:03:23.315Z,32.00
2023-01-10T17:05:56.247Z,32.20
2023-01-10T17:08:28.683Z,32.20
2023-01-10T17:11:06.571Z,29.70
2023-01-10T17:13:42.042Z,29.80
2023-01-10T17:16:18.649Z,30.00
2023-01-10T17:18:52.281Z,30.70
2023-01-10T17:21:25.405Z,29.30
2023-01-10T17:23:57.959Z,30.50
2023-01-10T17:26:30.021Z,30.50
2023-01-10T17:29:02.830Z,29.80
2023-01-10T17:31:34.980Z,29.70
2023-01-10T17:34:07.430Z,26.60
2023-01-10T17:36:40.145Z,23.40
2023-01-10T17:39:13.360Z,27.90
2023-01-10T17:41:45.739Z,32.20
2023-01-10T17:44:19.009Z,28.10
2023-01-10T17:46:52.418Z,23.30
2023-01-10T17:49:25.068Z,22.30
2023-01-10T17:51:59.076Z,25.50
2023-01-10T17:54:31.512Z,21.60
2023-01-10T17:57:03.532Z,20.70
2023-01-10T17:59:37.002Z,24.00
2023-01-10T18:02:11.921Z,20.90
2023-01-10T18:04:44.437Z,20.90
2023-01-10T18:07:16.407Z,20.50
2023-01-10T18:09:48.631Z,22.00
2023-01-10T18:12:20.848Z,23.50
2023-01-10T18:14:52.988Z,22.30
2023-01-10T18:17:25.151Z,88.60
2023-01-10T18:19:57.735Z,27.70
2023-01-10T18:22:47.103Z,23.40
2023-01-10T18:25:19.747Z,23.50
2023-01-10T18:27:52.808Z,22.50
2023-01-10T18:30:25.507Z,27.00
2023-01-10T18:32:58.238Z,25.60
2023-01-10T18:35:32.075Z,16.20
2023-01-10T18:40:34.988Z,24.00
2023-01-10T18:43:07.027Z,24.60
2023-01-10T18:45:40.025Z,24.60
2023-01-10T18:48:14.411Z,28.90
2023-01-10T18:50:47.905Z,27.00
2023-01-10T18:53:20.840Z,23.20
2023-01-10T18:56:01.172Z,25.30
2023-01-10T18:58:34.924Z,24.90
2023-01-10T19:01:10.763Z,25.40
2023-01-10T19:03:43.812Z,24.50
2023-01-10T19:06:18.412Z,26.40
2023-01-10T19:08:52.034Z,23.80
2023-01-10T19:11:26.138Z,25.40
2023-01-10T19:13:59.397Z,24.10
2023-01-10T19:16:33.643Z,22.70
2023-01-10T19:19:09.486Z,26.90
2023-01-10T19:21:42.718Z,26.30
2023-01-10T19:24:24.494Z,28.40
2023-01-10T19:26:57.080Z,28.70
2023-01-10T19:29:30.573Z,25.70
2023-01-10T19:32:04.488Z,26.50
2023-01-10T19:34:36.633Z,24.80
2023-01-10T19:37:09.255Z,28.90
2023-01-10T19:39:41.241Z,25.10
2023-01-10T19:42:13.687Z,25.00
2023-01-10T19:44:46.317Z,26.00
2023-01-10T19:47:18.888Z,34.20
2023-01-10T19:49:51.511Z,25.50
2023-01-10T19:52:23.863Z,29.10
2023-01-10T19:54:55.773Z,30.90
2023-01-10T19:57:28.279Z,30.50
2023-01-10T20:00:00.358Z,27.00
2023-01-10T20:02:32.499Z,27.20
2023-01-10T20:05:04.770Z,32.20
2023-01-10T20:07:36.922Z,31.70
2023-01-10T20:10:11.288Z,27.10
2023-01-10T20:12:44.140Z,30.10
2023-01-10T20:15:16.422Z,28.00
2023-01-10T20:17:48.769Z,33.70
2023-01-10T20:20:21.970Z,30.40
2023-01-10T20:22:57.362Z,26.00
2023-01-10T20:25:29.500Z,31.20
2023-01-10T20:28:02.287Z,33.60
2023-01-10T20:30:34.288Z,34.80
2023-01-10T20:33:07.046Z,33.10
2023-01-10T20:35:40.597Z,32.80
2023-01-10T20:38:12.809Z,37.40
2023-01-10T20:40:47.079Z,35.50
2023-01-10T20:43:19.520Z,36.70
2023-01-10T20:45:51.460Z,37.00
2023-01-10T20:48:24.677Z,37.30
2023-01-10T20:50:57.761Z,37.20
2023-01-10T20:53:30.311Z,38.50
2023-01-10T20:56:07.589Z,36.90
2023-01-10T20:58:41.952Z,33.90
2023-01-10T21:01:24.995Z,37.40
2023-01-10T21:04:06.056Z,55.50
2023-01-10T21:06:38.399Z,52.60
2023-01-10T21:09:11.648Z,56.20
2023-01-10T21:11:57.941Z,55.90
2023-01-10T21:14:34.310Z,52.70
2023-01-10T21:17:09.370Z,59.10
2023-01-10T21:19:42.159Z,51.50
2023-01-10T21:22:14.388Z,52.30
2023-01-10T21:24:49.857Z,44.20
2023-01-10T21:27:21.817Z,46.40
2023-01-10T21:29:54.935Z,41.40
2023-01-10T21:32:27.230Z,42.50
2023-01-10T21:34:59.647Z,45.70
2023-01-10T21:37:34.542Z,46.70
2023-01-10T21:40:08.368Z,50.40
2023-01-10T21:42:45.156Z,44.30
2023-01-10T21:45:20.286Z,46.00
2023-01-10T21:47:53.511Z,43.50
2023-01-10T21:50:26.240Z,45.40
2023-01-10T21:52:58.320Z,38.70
2023-01-10T21:55:30.688Z,41.40
2023-01-10T21:58:02.656Z,43.00
2023-01-10T22:00:38.221Z,39.30
2023-01-10T22:03:10.286Z,41.60
2023-01-10T22:05:42.971Z,41.70
2023-01-10T22:08:15.647Z,42.50
2023-01-10T22:10:47.918Z,39.60
2023-01-10T22:13:19.994Z,39.90
2023-01-10T22:15:58.251Z,39.60
2023-01-10T22:18:32.044Z,38.40
2023-01-10T22:21:04.980Z,36.40
2023-01-10T22:23:43.299Z,39.90
2023-01-10T22:26:18.160Z,37.40
2023-01-10T22:28:50.292Z,36.20
2023-01-10T22:31:23.114Z,34.60
2023-01-10T22:33:55.199Z,36.70
2023-01-10T22:36:27.469Z,35.40
2023-01-10T22:38:59.565Z,34.80
2023-01-10T22:41:31.828Z,38.80
2023-01-10T22:44:05.509Z,35.30
2023-01-10T22:46:37.809Z,34.50
2023-01-10T22:49:09.832Z,35.10
2023-01-10T22:51:42.062Z,30.20
2023-01-10T22:54:16.263Z,32.90
2023-01-10T22:56:48.952Z,33.30
2023-01-10T23:05:00.053Z,32.40
2023-01-10T23:07:32.252Z,33.00
2023-01-10T23:10:04.512Z,32.40
2023-01-10T23:12:36.608Z,34.30
2023-01-10T23:15:10.126Z,33.90
2023-01-10T23:17:42.268Z,32.20
2023-01-10T23:20:15.437Z,32.20
2023-01-10T23:22:48.283Z,30.90
2023-01-10T23:25:20.759Z,31.80
2023-01-10T23:27:52.929Z,30.30
2023-01-10T23:30:26.917Z,32.60
2023-01-10T23:33:01.519Z,29.80
2023-01-10T23:35:33.708Z,31.60
2023-01-10T23:38:05.999Z,31.30
2023-01-10T23:40:38.253Z,33.10
2023-01-10T23:43:10.345Z,30.20
2023-01-10T23:45:43.355Z,32.30
2023-01-10T23:48:16.040Z,31.30
2023-01-10T23:50:50.186Z,30.50
2023-01-10T23:53:22.917Z,28.50
2023-01-10T23:55:55.399Z,31.10
2023-01-10T23:58:28.537Z,31.70
